createdAt,value
2019-04-21T00:02:18.641Z,51.20
2019-04-21T00:04:56.870Z,51.50
2019-04-21T00:07:36.482Z,51.30
2019-04-21T00:10:12.069Z,51.50
2019-04-21T00:12:38.861Z,51.60
2019-04-21T00:15:02.202Z,51.60
2019-04-21T00:17:24.911Z,51.80
2019-04-21T00:20:09.106Z,51.90
2019-04-21T00:22:43.147Z,51.90
2019-04-21T00:25:20.991Z,51.60
2019-04-21T00:27:48.772Z,51.30
2019-04-21T00:30:32.961Z,51.30
2019-04-21T00:32:50.232Z,51.20
2019-04-21T00:35:13.386Z,51.20
2019-04-21T00:38:00.538Z,50.70
2019-04-21T00:40:34.657Z,49.40
2019-04-21T00:42:59.931Z,49.40
2019-04-21T00:45:29.079Z,49.40
2019-04-21T00:48:06.954Z,49.10
2019-04-21T00:50:50.965Z,49.10
2019-04-21T00:53:24.546Z,50.00
2019-04-21T00:55:51.608Z,50.20
2019-04-21T00:58:28.006Z,50.10
2019-04-21T01:00:58.041Z,50.10
2019-04-21T01:03:26.570Z,50.30
2019-04-21T01:05:57.621Z,50.10
2019-04-21T01:08:31.205Z,50.00
2019-04-21T01:10:57.024Z,50.90
2019-04-21T01:13:52.102Z,51.50
2019-04-21T01:16:10.170Z,51.60
2019-04-21T01:18:38.135Z,51.40
2019-04-21T01:20:48.344Z,51.20
2019-04-21T01:23:19.213Z,51.80
2019-04-21T01:26:05.160Z,52.70
2019-04-21T01:28:39.850Z,52.10
2019-04-21T01:31:14.970Z,52.10
2019-04-21T01:33:54.327Z,52.40
2019-04-21T01:36:14.581Z,52.80
2019-04-21T01:38:59.095Z,52.80
2019-04-21T01:41:29.288Z,53.10
2019-04-21T01:43:57.882Z,53.30
2019-04-21T01:46:28.154Z,53.60
2019-04-21T01:48:57.036Z,53.80
2019-04-21T01:51:45.612Z,53.80
2019-04-21T01:54:38.613Z,54.30
2019-04-21T01:57:11.438Z,54.20
2019-04-21T01:59:34.924Z,54.60
2019-04-21T02:02:18.427Z,55.50
2019-04-21T02:04:47.394Z,56.00
2019-04-21T02:07:15.245Z,56.30
2019-04-21T02:09:51.272Z,56.80
2019-04-21T02:12:20.986Z,57.00
2019-04-21T02:14:59.243Z,57.50
2019-04-21T02:17:24.624Z,57.80
2019-04-21T02:19:53.773Z,58.00
2019-04-21T02:22:35.236Z,58.30
2019-04-21T02:25:06.379Z,59.00
2019-04-21T02:27:29.937Z,58.60
2019-04-21T02:30:11.546Z,59.50
2019-04-21T02:32:48.132Z,59.90
2019-04-21T02:35:30.545Z,60.40
2019-04-21T02:37:54.786Z,61.30
2019-04-21T02:40:25.491Z,61.80
2019-04-21T02:42:59.867Z,62.40
2019-04-21T02:45:25.130Z,63.50
2019-04-21T02:48:11.349Z,64.10
2019-04-21T02:50:26.126Z,65.60
2019-04-21T03:00:34.603Z,67.90
2019-04-21T03:03:36.356Z,67.60
2019-04-21T03:06:18.663Z,68.50
2019-04-21T03:11:14.475Z,70.20
2019-04-21T03:13:56.774Z,70.20
2019-04-21T03:16:22.865Z,69.90
2019-04-21T03:21:20.488Z,71.20
2019-04-21T03:23:57.898Z,71.90
2019-04-21T03:26:42.750Z,71.90
2019-04-21T03:29:03.656Z,72.40
2019-04-21T03:36:56.525Z,73.30
2019-04-21T03:39:11.970Z,75.40
2019-04-21T03:42:07.292Z,76.00
2019-04-21T03:46:55.663Z,77.90
2019-04-21T03:49:28.091Z,78.40
2019-04-21T03:51:59.353Z,79.00
2019-04-21T03:54:27.053Z,79.20
2019-04-21T03:59:16.573Z,79.70
2019-04-21T04:05:15.119Z,81.10
2019-04-21T04:10:31.698Z,83.10
2019-04-21T04:12:52.175Z,84.80
2019-04-21T04:15:32.857Z,86.50
2019-04-21T04:17:54.382Z,87.50
2019-04-21T04:23:08.123Z,88.70
2019-04-21T04:28:14.123Z,90.10
2019-04-21T04:30:39.465Z,89.30
2019-04-21T04:32:56.661Z,88.50
2019-04-21T04:35:42.388Z,90.20
2019-04-21T04:38:12.863Z,92.00
2019-04-21T04:41:05.902Z,92.80
2019-04-21T04:43:33.037Z,92.80
2019-04-21T04:46:02.661Z,92.40
2019-04-21T04:48:39.393Z,92.40
2019-04-21T04:51:12.198Z,92.30
2019-04-21T04:56:10.815Z,93.10
2019-04-21T04:59:10.607Z,93.20
2019-04-21T05:01:29.938Z,92.90
2019-04-21T05:03:52.595Z,93.10
2019-04-21T05:09:03.338Z,93.20
2019-04-21T05:14:02.788Z,93.40
2019-04-21T05:23:51.075Z,92.20
2019-04-21T05:26:18.878Z,91.50
2019-04-21T05:28:49.804Z,92.00
2019-04-21T05:31:56.406Z,91.90
2019-04-21T05:34:42.697Z,91.40
2019-04-21T05:37:14.342Z,91.30
2019-04-21T05:40:05.914Z,90.30
2019-04-21T05:42:44.435Z,89.50
2019-04-21T05:45:21.133Z,88.30
2019-04-21T05:50:42.947Z,87.10
2019-04-21T05:53:14.901Z,86.00
2019-04-21T05:58:11.603Z,84.20
2019-04-21T06:01:18.313Z,83.30
2019-04-21T06:03:36.845Z,84.10
2019-04-21T06:08:53.667Z,85.40
2019-04-21T06:11:14.780Z,86.50
2019-04-21T06:13:58.363Z,87.10
2019-04-21T06:16:20.156Z,88.20
2019-04-21T06:18:55.935Z,89.20
2019-04-21T06:21:16.484Z,88.90
2019-04-21T06:23:51.533Z,88.60
2019-04-21T06:28:59.310Z,79.70
2019-04-21T06:31:58.104Z,70.60
2019-04-21T06:33:58.805Z,58.10
2019-04-21T06:36:42.711Z,50.50
2019-04-21T06:41:39.771Z,40.30
2019-04-21T06:46:44.843Z,36.00
2019-04-21T06:49:14.285Z,33.60
2019-04-21T06:51:46.882Z,31.20
2019-04-21T06:54:23.489Z,30.20
2019-04-21T06:56:51.723Z,29.00
2019-04-21T06:59:21.018Z,29.30
2019-04-21T07:02:05.346Z,30.00
2019-04-21T07:04:29.616Z,29.40
2019-04-21T07:06:59.272Z,28.80
2019-04-21T07:09:31.890Z,28.30
2019-04-21T07:12:02.266Z,28.00
2019-04-21T07:14:40.907Z,28.00
2019-04-21T07:17:15.645Z,27.60
2019-04-21T07:19:40.992Z,27.40
2019-04-21T07:22:12.352Z,26.60
2019-04-21T07:24:43.483Z,26.50
2019-04-21T07:27:26.982Z,26.10
2019-04-21T07:29:53.420Z,26.00
2019-04-21T07:32:20.766Z,25.70
2019-04-21T07:34:57.834Z,26.30
2019-04-21T07:37:31.633Z,25.70
2019-04-21T07:39:54.608Z,25.90
2019-04-21T07:42:25.403Z,26.30
2019-04-21T07:44:53.473Z,25.90
2019-04-21T07:47:39.593Z,25.80
2019-04-21T07:50:24.125Z,26.20
2019-04-21T07:53:14.538Z,26.80
2019-04-21T07:58:11.179Z,27.10
2019-04-21T08:03:13.799Z,25.70
2019-04-21T08:05:53.040Z,25.60
2019-04-21T08:08:17.904Z,25.10
2019-04-21T08:10:50.668Z,25.30
2019-04-21T08:13:31.622Z,26.10
2019-04-21T08:15:52.826Z,26.20
2019-04-21T08:18:28.788Z,26.20
2019-04-21T08:20:54.802Z,25.50
2019-04-21T08:28:32.052Z,25.40
2019-04-21T08:31:04.848Z,24.60
2019-04-21T08:33:38.707Z,24.10
2019-04-21T08:38:51.563Z,23.70
2019-04-21T08:41:12.432Z,23.80
2019-04-21T08:43:51.546Z,23.30
2019-04-21T08:46:21.493Z,23.20
2019-04-21T08:48:55.480Z,23.00
2019-04-21T08:51:30.173Z,23.20
2019-04-21T08:54:01.405Z,23.30
2019-04-21T08:57:05.970Z,23.30
2019-04-21T08:59:58.659Z,22.00
2019-04-21T09:02:35.280Z,21.00
2019-04-21T09:05:14.170Z,22.40
2019-04-21T09:07:44.681Z,20.90
2019-04-21T09:10:16.894Z,20.70
2019-04-21T09:12:49.124Z,20.60
2019-04-21T09:15:19.031Z,20.50
2019-04-21T09:17:44.802Z,21.00
2019-04-21T09:20:24.905Z,20.20
2019-04-21T09:22:54.434Z,20.90
2019-04-21T09:25:33.386Z,21.70
2019-04-21T09:28:01.325Z,22.00
2019-04-21T09:30:17.909Z,22.60
2019-04-21T09:32:54.542Z,22.70
2019-04-21T09:35:26.961Z,22.90
2019-04-21T09:38:02.937Z,22.70
2019-04-21T09:40:34.428Z,22.70
2019-04-21T09:43:04.761Z,23.70
2019-04-21T09:45:31.023Z,23.20
2019-04-21T09:48:09.547Z,23.20
2019-04-21T09:50:37.786Z,23.30
2019-04-21T09:53:16.845Z,23.30
2019-04-21T09:55:46.367Z,22.20
2019-04-21T09:58:23.205Z,23.00
2019-04-21T10:00:55.330Z,22.90
2019-04-21T10:03:17.986Z,23.90
2019-04-21T10:05:50.272Z,22.70
2019-04-21T10:08:19.744Z,22.70
2019-04-21T10:10:49.172Z,23.30
2019-04-21T10:13:19.145Z,23.30
2019-04-21T10:16:03.055Z,22.60
2019-04-21T10:18:34.187Z,24.30
2019-04-21T10:21:03.603Z,21.50
2019-04-21T10:23:37.168Z,22.90
2019-04-21T10:26:08.533Z,22.50
2019-04-21T10:28:39.130Z,22.60
2019-04-21T10:31:14.312Z,25.20
2019-04-21T10:33:42.460Z,24.30
2019-04-21T10:36:15.339Z,24.20
2019-04-21T10:38:51.283Z,24.10
2019-04-21T10:41:19.261Z,25.00
2019-04-21T10:43:49.373Z,26.50
2019-04-21T10:46:20.342Z,26.90
2019-04-21T10:48:50.833Z,27.30
2019-04-21T10:51:23.093Z,24.40
2019-04-21T10:53:57.814Z,24.10
2019-04-21T10:56:33.245Z,26.90
2019-04-21T10:59:00.267Z,26.80
2019-04-21T11:01:34.451Z,27.00
2019-04-21T11:04:18.936Z,23.40
2019-04-21T11:06:40.312Z,22.60
2019-04-21T11:09:11.263Z,23.30
2019-04-21T11:11:45.035Z,23.30
2019-04-21T11:14:15.494Z,23.80
2019-04-21T11:16:47.511Z,25.30
2019-04-21T11:19:20.050Z,26.10
2019-04-21T11:21:49.512Z,24.90
2019-04-21T11:24:18.925Z,25.70
2019-04-21T11:26:49.721Z,25.20
2019-04-21T11:29:21.297Z,24.30
2019-04-21T11:31:51.402Z,23.70
2019-04-21T11:34:22.988Z,22.90
2019-04-21T11:36:54.281Z,22.80
2019-04-21T11:39:37.562Z,22.60
2019-04-21T11:41:59.641Z,22.80
2019-04-21T11:44:29.228Z,24.30
2019-04-21T11:46:58.664Z,26.00
2019-04-21T11:49:31.970Z,24.90
2019-04-21T11:52:00.690Z,24.30
2019-04-21T11:54:31.111Z,24.70
2019-04-21T11:57:03.477Z,25.00
2019-04-21T11:59:33.372Z,25.50
2019-04-21T12:02:03.614Z,25.20
2019-04-21T12:04:33.810Z,23.80
2019-04-21T12:07:04.999Z,24.60
2019-04-21T12:09:35.549Z,24.50
2019-04-21T12:12:07.393Z,24.20
2019-04-21T12:14:36.873Z,24.10
2019-04-21T12:17:07.899Z,24.70
2019-04-21T12:19:40.784Z,24.40
2019-04-21T12:22:20.188Z,24.40
2019-04-21T12:24:44.985Z,24.70
2019-04-21T12:27:18.284Z,24.50
2019-04-21T12:29:47.979Z,24.00
2019-04-21T12:33:00.390Z,24.10
2019-04-21T12:35:31.018Z,23.90
2019-04-21T12:38:01.016Z,24.50
2019-04-21T12:40:32.594Z,24.70
2019-04-21T12:43:03.319Z,24.20
2019-04-21T12:45:33.683Z,24.50
2019-04-21T12:48:04.257Z,24.20
2019-04-21T12:50:34.136Z,24.50
2019-04-21T12:53:16.015Z,25.00
2019-04-21T12:55:48.008Z,23.80
2019-04-21T12:58:19.364Z,23.70
2019-04-21T13:00:49.651Z,24.10
2019-04-21T13:03:21.783Z,23.70
2019-04-21T13:05:51.735Z,22.30
2019-04-21T13:08:21.895Z,22.70
2019-04-21T13:10:53.974Z,22.80
2019-04-21T13:13:23.938Z,21.90
2019-04-21T13:15:55.730Z,22.70
2019-04-21T13:18:33.169Z,22.50
2019-04-21T13:21:04.255Z,23.30
2019-04-21T13:23:36.876Z,22.40
2019-04-21T13:26:08.268Z,22.40
2019-04-21T13:28:40.840Z,23.40
2019-04-21T13:31:26.595Z,24.00
2019-04-21T13:33:57.890Z,22.80
2019-04-21T13:36:27.752Z,22.90
2019-04-21T13:39:39.604Z,23.10
2019-04-21T13:41:50.551Z,23.20
2019-04-21T13:44:13.269Z,22.80
2019-04-21T13:46:45.077Z,22.70
2019-04-21T13:49:17.263Z,23.30
2019-04-21T13:51:48.029Z,23.30
2019-04-21T13:54:18.174Z,23.40
2019-04-21T13:56:50.293Z,23.40
2019-04-21T13:59:22.486Z,23.70
2019-04-21T14:01:52.057Z,24.20
2019-04-21T14:04:25.191Z,23.90
2019-04-21T14:07:00.526Z,24.90
2019-04-21T14:09:40.290Z,24.70
2019-04-21T14:12:03.319Z,24.40
2019-04-21T14:14:34.456Z,24.40
2019-04-21T14:17:05.459Z,24.70
2019-04-21T14:19:39.480Z,24.10
2019-04-21T14:22:11.630Z,24.30
2019-04-21T14:24:41.647Z,24.90
2019-04-21T14:27:12.441Z,24.30
2019-04-21T14:29:43.881Z,24.60
2019-04-21T14:32:16.119Z,24.10
2019-04-21T14:34:48.810Z,23.80
2019-04-21T14:37:20.172Z,24.20
2019-04-21T14:39:57.796Z,24.30
2019-04-21T14:42:24.276Z,24.70
2019-04-21T14:44:57.000Z,24.40
2019-04-21T14:47:35.873Z,24.20
2019-04-21T14:50:26.244Z,24.70
2019-04-21T14:53:11.957Z,24.30
2019-04-21T14:55:43.564Z,24.50
2019-04-21T14:58:17.083Z,24.40
2019-04-21T15:00:57.940Z,23.70
2019-04-21T15:03:32.055Z,24.10
2019-04-21T15:06:07.471Z,23.70
2019-04-21T15:08:37.513Z,23.70
2019-04-21T15:11:08.649Z,24.20
2019-04-21T15:13:38.080Z,24.50
2019-04-21T15:16:13.005Z,24.80
2019-04-21T15:18:44.566Z,24.80
2019-04-21T15:21:15.352Z,24.50
2019-04-21T15:23:44.749Z,24.50
2019-04-21T15:26:18.033Z,25.00
2019-04-21T15:28:50.939Z,25.00
2019-04-21T15:31:30.679Z,24.30
2019-04-21T15:33:55.009Z,24.50
2019-04-21T15:36:27.104Z,23.80
2019-04-21T15:38:58.001Z,24.40
2019-04-21T15:41:28.126Z,24.70
2019-04-21T15:43:59.677Z,24.30
2019-04-21T15:46:31.815Z,24.40
2019-04-21T15:49:00.641Z,24.40
2019-04-21T15:51:29.988Z,23.80
2019-04-21T15:54:00.547Z,24.10
2019-04-21T15:56:44.857Z,24.20
2019-04-21T15:59:30.570Z,25.00
2019-04-21T16:02:19.398Z,24.70
2019-04-21T16:04:48.733Z,24.10
2019-04-21T16:07:20.479Z,24.30
2019-04-21T16:09:50.420Z,24.40
2019-04-21T16:12:22.865Z,24.60
2019-04-21T16:14:54.493Z,25.10
2019-04-21T16:17:27.498Z,24.40
2019-04-21T16:20:01.880Z,23.80
2019-04-21T16:22:32.984Z,24.10
2019-04-21T16:25:05.180Z,23.70
2019-04-21T16:27:35.212Z,23.50
2019-04-21T16:30:06.186Z,23.70
2019-04-21T16:32:36.328Z,23.90
2019-04-21T16:35:10.477Z,24.00
2019-04-21T16:37:39.423Z,23.80
2019-04-21T16:40:11.672Z,24.00
2019-04-21T16:42:42.536Z,23.50
2019-04-21T16:45:12.976Z,24.10
2019-04-21T16:47:47.376Z,24.80
2019-04-21T16:50:17.213Z,25.30
2019-04-21T16:52:52.141Z,25.60
2019-04-21T16:55:45.017Z,25.40
2019-04-21T16:58:29.164Z,25.80
2019-04-21T17:01:08.347Z,25.60
2019-04-21T17:03:34.577Z,26.00
2019-04-21T17:06:05.118Z,25.80
2019-04-21T17:08:34.716Z,25.20
2019-04-21T17:13:38.312Z,25.70
2019-04-21T17:16:21.018Z,25.30
2019-04-21T17:16:36.495Z,26.20
2019-04-21T17:18:51.378Z,26.20
2019-04-21T17:21:11.128Z,26.00
2019-04-21T17:24:00.197Z,26.20
2019-04-21T17:26:31.327Z,25.90
2019-04-21T17:29:03.011Z,26.40
2019-04-21T17:31:34.027Z,26.70
2019-04-21T17:34:11.886Z,27.30
2019-04-21T17:36:35.122Z,27.40
2019-04-21T17:39:06.886Z,27.40
2019-04-21T17:41:42.520Z,27.80
2019-04-21T17:44:08.734Z,27.40
2019-04-21T17:46:47.796Z,27.60
2019-04-21T17:49:11.108Z,27.80
2019-04-21T17:52:02.273Z,27.90
2019-04-21T17:54:42.864Z,28.30
2019-04-21T17:57:26.731Z,28.50
2019-04-21T18:00:04.194Z,28.90
2019-04-21T18:02:38.611Z,29.30
2019-04-21T18:05:03.757Z,29.30
2019-04-21T18:07:49.189Z,30.00
2019-04-21T18:10:05.045Z,29.70
2019-04-21T18:12:33.722Z,29.70
2019-04-21T18:15:00.212Z,30.00
2019-04-21T18:17:20.960Z,30.10
2019-04-21T18:19:55.092Z,30.60
2019-04-21T18:22:46.935Z,30.20
2019-04-21T18:25:28.488Z,30.30
2019-04-21T18:27:50.399Z,31.10
2019-04-21T18:31:14.439Z,30.90
2019-04-21T18:34:16.311Z,31.30
2019-04-21T18:36:52.485Z,32.10
2019-04-21T18:39:52.540Z,32.00
2019-04-21T18:42:40.547Z,31.90
2019-04-21T18:45:45.133Z,31.70
2019-04-21T18:48:18.947Z,32.60
2019-04-21T18:51:06.384Z,31.80
2019-04-21T18:54:17.373Z,31.60
2019-04-21T18:56:25.313Z,31.60
2019-04-21T18:58:55.961Z,31.70
2019-04-21T19:01:35.217Z,31.90
2019-04-21T19:04:14.292Z,31.90
2019-04-21T19:06:58.398Z,32.40
2019-04-21T19:09:35.883Z,32.50
2019-04-21T19:11:59.596Z,32.30
2019-04-21T19:14:32.078Z,32.80
2019-04-21T19:17:33.885Z,32.70
2019-04-21T19:19:50.429Z,32.90
2019-04-21T19:22:11.816Z,33.50
2019-04-21T19:24:59.501Z,33.30
2019-04-21T19:27:19.251Z,34.80
2019-04-21T19:29:57.291Z,34.40
2019-04-21T19:32:22.135Z,34.50
2019-04-21T19:34:35.910Z,35.50
2019-04-21T19:37:10.940Z,34.70
2019-04-21T19:39:42.871Z,34.40
2019-04-21T19:42:18.628Z,34.60
2019-04-21T19:44:52.107Z,35.60
2019-04-21T19:47:28.229Z,36.30
2019-04-21T19:50:00.360Z,35.60
2019-04-21T19:52:23.700Z,35.70
2019-04-21T19:54:46.534Z,36.30
2019-04-21T19:57:13.265Z,35.90
2019-04-21T19:59:48.600Z,36.10
2019-04-21T20:02:18.670Z,36.40
2019-04-21T20:04:54.216Z,36.10
2019-04-21T20:07:38.232Z,36.70
2019-04-21T20:10:18.705Z,36.80
2019-04-21T20:12:45.275Z,37.20
2019-04-21T20:15:26.082Z,37.00
2019-04-21T20:17:48.338Z,37.20
2019-04-21T20:20:11.116Z,37.60
2019-04-21T20:22:45.017Z,37.50
2019-04-21T20:25:16.104Z,38.30
2019-04-21T20:27:54.305Z,37.50
2019-04-21T20:30:32.759Z,36.30
2019-04-21T20:33:27.988Z,36.60
2019-04-21T20:35:44.782Z,35.90
2019-04-21T20:38:08.961Z,36.00
2019-04-21T20:40:36.254Z,38.10
2019-04-21T20:43:23.668Z,38.60
2019-04-21T20:45:58.070Z,38.70
2019-04-21T20:48:11.484Z,37.00
2019-04-21T20:50:49.305Z,38.10
2019-04-21T20:53:19.858Z,39.50
2019-04-21T20:55:48.402Z,39.20
2019-04-21T20:58:23.956Z,37.70
2019-04-21T21:01:19.017Z,39.30
2019-04-21T21:03:30.114Z,40.00
2019-04-21T21:05:54.333Z,40.00
2019-04-21T21:08:35.698Z,40.10
2019-04-21T21:11:00.306Z,38.40
2019-04-21T21:13:36.703Z,37.80
2019-04-21T21:16:13.966Z,38.80
2019-04-21T21:18:56.442Z,40.80
2019-04-21T21:21:11.154Z,41.00
2019-04-21T21:23:48.040Z,41.70
2019-04-21T21:26:23.421Z,42.20
2019-04-21T21:28:43.256Z,42.10
2019-04-21T21:31:17.732Z,42.10
2019-04-21T21:34:03.497Z,42.50
2019-04-21T21:36:25.137Z,42.50
2019-04-21T21:39:02.476Z,42.90
2019-04-21T21:41:25.795Z,42.40
2019-04-21T21:43:59.027Z,42.70
2019-04-21T21:46:43.019Z,43.20
2019-04-21T21:49:06.131Z,43.90
2019-04-21T21:51:39.771Z,43.50
2019-04-21T21:53:59.015Z,43.90
2019-04-21T21:56:34.255Z,44.00
2019-04-21T21:59:12.974Z,44.10
2019-04-21T22:01:44.096Z,43.90
2019-04-21T22:04:18.922Z,44.30
2019-04-21T22:06:50.700Z,44.50
2019-04-21T22:09:16.631Z,44.30
2019-04-21T22:11:53.569Z,44.70
2019-04-21T22:14:28.257Z,44.50
2019-04-21T22:17:10.904Z,44.70
2019-04-21T22:19:41.736Z,45.00
2019-04-21T22:22:21.051Z,44.50
2019-04-21T22:24:53.367Z,44.60
2019-04-21T22:27:16.952Z,44.40
2019-04-21T22:29:51.611Z,45.40
2019-04-21T22:32:24.501Z,45.80
2019-04-21T22:34:56.556Z,46.20
2019-04-21T22:37:39.222Z,46.60
2019-04-21T22:40:04.511Z,46.80
2019-04-21T22:42:31.756Z,46.60
2019-04-21T22:44:56.767Z,46.30
2019-04-21T22:47:31.976Z,46.60
2019-04-21T22:49:59.127Z,46.40
2019-04-21T22:55:03.216Z,45.80
2019-04-21T22:57:39.116Z,46.30
2019-04-21T23:00:05.193Z,46.30
2019-04-21T23:02:35.060Z,46.30
2019-04-21T23:05:04.513Z,46.40
2019-04-21T23:07:44.144Z,46.20
2019-04-21T23:10:09.414Z,47.30
2019-04-21T23:12:42.061Z,46.80
2019-04-21T23:15:18.586Z,47.10
2019-04-21T23:17:59.530Z,47.20
2019-04-21T23:20:39.344Z,47.50
2019-04-21T23:23:11.781Z,47.40
2019-04-21T23:25:40.552Z,48.50
2019-04-21T23:28:10.116Z,48.70
2019-04-21T23:30:52.944Z,49.30
2019-04-21T23:33:04.935Z,48.90
2019-04-21T23:35:35.195Z,48.80
2019-04-21T23:38:04.808Z,48.40
2019-04-21T23:40:32.913Z,48.20
2019-04-21T23:43:10.639Z,48.00
2019-04-21T23:45:40.910Z,47.70
2019-04-21T23:48:23.837Z,46.60
2019-04-21T23:50:51.435Z,46.10
2019-04-21T23:53:19.596Z,45.50
2019-04-21T23:55:50.303Z,45.10
2019-04-21T23:58:27.933Z,45.00
